Time;durP1;ratioP1;P1;durP2;ratioP2;P2;SDS_P1;SDS_P2;PMS_P1;PMS_P2;Temp;Humidity;BMP_temperature;BMP_pressure;BME280_temperature;BME280_humidity;BME280_pressure;Samples;Min_cycle;Max_cycle;Signal;HPM_P1;HPM_P2
2022/11/07 00:02:00;;;;;;;10.13;4.30;;;10.40;99.90;;;;;;5111254;28;20031;-66
2022/11/07 00:04:30;;;;;;;7.07;3.88;;;10.50;99.90;;;;;;5109152;28;20078;-65
2022/11/07 00:06:56;;;;;;;7.75;3.90;;;10.50;99.90;;;;;;5113368;28;20042;-66
2022/11/07 00:09:22;;;;;;;9.85;3.95;;;10.50;99.90;;;;;;5094059;28;20421;-66
2022/11/07 00:11:47;;;;;;;9.85;4.05;;;10.60;99.90;;;;;;5110635;28;20035;-65
2022/11/07 00:14:15;;;;;;;11.52;4.53;;;10.60;99.90;;;;;;5112368;28;20354;-66
2022/11/07 00:16:42;;;;;;;7.57;3.65;;;10.60;99.90;;;;;;5109748;28;20047;-66
2022/11/07 00:19:08;;;;;;;8.02;4.00;;;10.60;99.90;;;;;;5110607;28;20053;-66
2022/11/07 00:21:34;;;;;;;9.10;4.50;;;10.60;99.90;;;;;;5107123;28;20051;-66
2022/11/07 00:24:00;;;;;;;6.78;3.30;;;10.60;99.90;;;;;;5107477;28;20040;-66
2022/11/07 00:26:25;;;;;;;9.95;4.28;;;10.60;99.90;;;;;;5106121;28;20078;-66
2022/11/07 00:28:51;;;;;;;9.55;3.95;;;10.70;99.90;;;;;;5109052;28;20111;-66
2022/11/07 00:31:17;;;;;;;6.75;3.47;;;10.70;99.90;;;;;;5106350;28;20089;-66
2022/11/07 00:33:43;;;;;;;10.15;3.72;;;10.70;99.90;;;;;;5107882;28;21497;-66
2022/11/07 00:36:16;;;;;;;11.98;3.70;;;10.80;99.90;;;;;;5106446;28;20036;-66
2022/11/07 00:38:41;;;;;;;;;;;10.80;99.90;;;;;;5109684;28;20032;-66
2022/11/07 00:41:08;;;;;;;13.65;5.05;;;10.80;99.90;;;;;;5111320;28;20372;-66
2022/11/07 00:43:33;;;;;;;10.60;3.83;;;10.80;99.90;;;;;;5112791;28;20048;-67
2022/11/07 00:46:01;;;;;;;8.63;3.33;;;10.80;99.90;;;;;;5109209;28;20044;-67
2022/11/07 00:48:27;;;;;;;8.63;3.88;;;10.70;99.90;;;;;;5110705;28;20382;-66
2022/11/07 00:50:53;;;;;;;10.70;4.15;;;10.70;99.90;;;;;;5109533;28;20081;-66
2022/11/07 00:53:19;;;;;;;14.23;4.28;;;10.70;99.90;;;;;;5111704;28;20075;-66
2022/11/07 00:55:44;;;;;;;9.48;3.47;;;10.70;99.90;;;;;;5109801;28;20027;-66
2022/11/07 00:58:10;;;;;;;12.07;3.90;;;10.70;99.90;;;;;;5110410;28;20093;-66
2022/11/07 01:00:36;;;;;;;9.10;4.43;;;10.70;99.90;;;;;;5108814;28;20024;-65
2022/11/07 01:06:01;;;;;;;9.32;3.33;;;10.70;99.90;;;;;;5107896;28;20047;-66
2022/11/07 01:08:27;;;;;;;8.43;3.60;;;10.70;99.90;;;;;;5110306;28;20039;-67
2022/11/07 01:10:53;;;;;;;9.88;3.42;;;10.70;99.90;;;;;;5102448;28;20043;-65
2022/11/07 01:13:20;;;;;;;9.30;3.33;;;10.70;99.90;;;;;;5109539;28;20050;-66
2022/11/07 01:15:46;;;;;;;8.75;3.53;;;10.70;99.90;;;;;;5108523;28;20048;-66
2022/11/07 01:18:11;;;;;;;9.75;3.50;;;10.70;99.90;;;;;;5111662;28;20032;-65
2022/11/07 01:20:37;;;;;;;7.35;3.38;;;10.80;99.90;;;;;;5109766;28;20058;-66
2022/11/07 01:23:03;;;;;;;10.13;3.67;;;10.80;99.90;;;;;;5105407;27;20043;-66
2022/11/07 01:25:28;;;;;;;8.43;3.63;;;10.80;99.90;;;;;;5108635;27;20039;-66
2022/11/07 01:27:54;;;;;;;8.57;3.53;;;10.80;99.90;;;;;;5108279;27;20101;-66
2022/11/07 01:30:20;;;;;;;9.80;3.40;;;10.90;99.90;;;;;;5109681;27;20047;-65
2022/11/07 01:32:45;;;;;;;10.38;3.35;;;10.90;99.90;;;;;;5111329;27;20074;-66
2022/11/07 01:35:11;;;;;;;11.00;3.70;;;10.90;99.90;;;;;;5107865;27;20168;-66
2022/11/07 01:37:37;;;;;;;8.90;3.58;;;10.90;99.90;;;;;;5106070;28;20047;-66
2022/11/07 01:40:03;;;;;;;9.30;3.60;;;10.90;99.90;;;;;;5109531;27;20075;-65
2022/11/07 01:42:29;;;;;;;9.23;4.00;;;10.90;99.90;;;;;;5108468;28;20039;-66
2022/11/07 01:44:58;;;;;;;7.43;3.40;;;11.00;99.90;;;;;;5107859;27;20043;-67
2022/11/07 01:47:28;;;;;;;9.05;3.25;;;11.00;99.90;;;;;;5092530;28;20141;-67
2022/11/07 01:49:55;;;;;;;6.72;3.25;;;11.00;99.90;;;;;;5108304;27;20046;-67
2022/11/07 01:52:29;;;;;;;9.73;2.90;;;11.00;99.90;;;;;;5105134;27;20047;-66
2022/11/07 01:55:00;;;;;;;8.95;3.60;;;11.00;99.90;;;;;;5109423;27;20036;-66
2022/11/07 01:57:36;;;;;;;7.53;3.05;;;11.00;99.90;;;;;;5108295;27;20039;-66
2022/11/07 02:00:05;;;;;;;13.63;3.55;;;11.00;99.90;;;;;;5126121;27;20035;-66
2022/11/07 02:02:32;;;;;;;13.13;3.65;;;11.00;99.90;;;;;;5108507;27;20070;-66
2022/11/07 02:05:00;;;;;;;11.07;3.28;;;11.00;99.90;;;;;;5109351;27;20065;-66
2022/11/07 02:07:25;;;;;;;10.98;3.30;;;11.00;99.90;;;;;;5107885;28;20069;-65
2022/11/07 02:09:52;;;;;;;11.50;3.30;;;11.10;99.90;;;;;;5108692;27;20611;-66
2022/11/07 02:12:18;;;;;;;8.50;3.30;;;11.10;99.90;;;;;;5109804;27;20110;-67
2022/11/07 02:14:44;;;;;;;12.15;2.90;;;11.10;99.90;;;;;;5108522;28;20063;-67
2022/11/07 02:17:12;;;;;;;9.63;3.10;;;11.10;99.90;;;;;;5108338;27;20446;-66
2022/11/07 02:19:42;;;;;;;8.10;2.90;;;11.10;99.90;;;;;;5093055;28;20123;-67
2022/11/07 02:22:35;;;;;;;10.95;3.13;;;11.10;99.90;;;;;;5107426;28;20050;-66
2022/11/07 02:25:08;;;;;;;11.88;3.53;;;11.10;99.90;;;;;;5091287;28;20189;-66
2022/11/07 02:27:34;;;;;;;10.95;3.25;;;11.10;99.90;;;;;;5106129;28;20111;-67
2022/11/07 02:30:09;;;;;;;12.75;3.63;;;11.10;99.90;;;;;;5108670;28;20425;-66
2022/11/07 02:32:35;;;;;;;11.48;3.72;;;11.10;99.90;;;;;;5108773;28;20078;-66
2022/11/07 02:35:26;;;;;;;7.18;3.20;;;11.10;99.90;;;;;;5108400;28;20059;-66
2022/11/07 02:37:52;;;;;;;8.20;3.42;;;11.10;99.90;;;;;;5107841;28;20386;-66
2022/11/07 02:40:18;;;;;;;9.68;3.10;;;11.10;99.90;;;;;;5107548;28;20043;-66
2022/11/07 02:42:45;;;;;;;7.57;3.40;;;11.10;99.90;;;;;;5107310;28;20050;-65
2022/11/07 02:45:20;;;;;;;13.85;3.88;;;11.10;99.90;;;;;;5109165;28;20506;-66
2022/11/07 02:47:46;;;;;;;10.45;3.90;;;11.10;99.90;;;;;;5106768;28;20047;-66
2022/11/07 02:50:14;;;;;;;11.75;4.13;;;11.00;99.90;;;;;;5107814;28;20036;-66
2022/11/07 02:52:39;;;;;;;8.70;3.40;;;11.00;99.90;;;;;;5108052;28;20486;-66
2022/11/07 02:55:06;;;;;;;10.65;4.15;;;10.90;99.90;;;;;;5107665;28;20126;-66
2022/11/07 02:57:33;;;;;;;10.45;3.97;;;10.90;99.90;;;;;;5109849;28;20046;-66
2022/11/07 02:59:59;;;;;;;10.75;3.30;;;10.90;99.90;;;;;;5101385;28;20050;-66
2022/11/07 03:02:25;;;;;;;11.57;3.78;;;10.90;99.90;;;;;;5107439;28;20043;-66
2022/11/07 03:04:51;;;;;;;9.10;3.63;;;10.80;99.90;;;;;;5108269;28;20554;-66
2022/11/07 03:07:16;;;;;;;12.13;3.90;;;10.80;99.90;;;;;;5109383;28;20114;-66
2022/11/07 03:09:42;;;;;;;11.05;3.47;;;10.80;99.90;;;;;;5108285;28;20057;-66
2022/11/07 03:12:07;;;;;;;9.00;3.33;;;10.80;99.90;;;;;;5108452;28;20057;-66
2022/11/07 03:14:33;;;;;;;9.55;3.40;;;10.80;99.90;;;;;;5107902;28;20111;-66
2022/11/07 03:16:59;;;;;;;12.40;3.60;;;10.80;99.90;;;;;;5108747;28;20035;-66
2022/11/07 03:19:24;;;;;;;13.00;4.10;;;10.80;99.90;;;;;;5109588;28;20058;-66
2022/11/07 03:21:50;;;;;;;9.27;3.55;;;10.80;99.90;;;;;;5104241;28;20062;-65
2022/11/07 03:24:16;;;;;;;14.63;3.42;;;10.80;99.90;;;;;;5108171;28;20048;-65
2022/11/07 03:26:42;;;;;;;9.73;3.42;;;10.80;99.90;;;;;;5107420;28;20036;-66
2022/11/07 03:29:08;;;;;;;11.55;3.95;;;10.70;99.90;;;;;;5108407;28;20130;-66
2022/11/07 03:31:33;;;;;;;9.52;3.40;;;10.80;99.90;;;;;;5107210;28;20039;-66
2022/11/07 03:33:59;;;;;;;11.02;3.40;;;10.80;99.90;;;;;;5108660;28;20039;-66
2022/11/07 03:36:25;;;;;;;11.25;3.60;;;10.90;99.90;;;;;;5107056;28;20464;-65
2022/11/07 03:38:51;;;;;;;14.50;3.55;;;10.90;99.90;;;;;;5108495;28;20036;-66
2022/11/07 03:41:16;;;;;;;12.20;3.67;;;10.90;99.90;;;;;;5090470;28;20039;-66
2022/11/07 03:43:46;;;;;;;10.80;3.03;;;10.90;99.90;;;;;;5089411;28;20110;-66
2022/11/07 03:46:13;;;;;;;12.05;3.53;;;10.90;99.90;;;;;;5107734;28;20036;-66
2022/11/07 03:48:39;;;;;;;15.68;4.32;;;11.00;99.90;;;;;;5089744;28;20406;-65
2022/11/07 03:51:07;;;;;;;12.18;3.70;;;11.00;99.90;;;;;;5108231;28;20043;-66
2022/11/07 03:53:33;;;;;;;10.18;3.40;;;11.00;99.90;;;;;;5108010;28;20070;-66
2022/11/07 03:55:58;;;;;;;10.02;3.72;;;11.00;99.90;;;;;;5108346;28;20059;-66
2022/11/07 03:58:24;;;;;;;11.43;3.47;;;11.00;99.90;;;;;;5107209;28;20051;-66
2022/11/07 04:00:50;;;;;;;13.75;3.95;;;11.00;99.90;;;;;;5108116;28;20036;-67
2022/11/07 04:03:16;;;;;;;14.48;3.67;;;11.00;99.90;;;;;;5106438;28;20050;-66
2022/11/07 04:05:42;;;;;;;10.60;3.88;;;11.00;99.90;;;;;;5090573;28;20142;-66
2022/11/07 04:08:07;;;;;;;10.65;3.72;;;11.00;99.90;;;;;;5109581;28;20036;-66
2022/11/07 04:10:33;;;;;;;11.93;3.88;;;11.00;99.90;;;;;;5108034;28;20034;-65
2022/11/07 04:18:28;;;;;;;11.60;3.55;;;10.90;99.90;;;;;;5111715;28;20039;-66
2022/11/07 04:20:54;;;;;;;12.00;4.22;;;10.80;99.90;;;;;;5114748;27;20116;-66
2022/11/07 04:23:19;;;;;;;15.10;3.65;;;10.80;99.90;;;;;;5133748;27;20636;-66
2022/11/07 04:28:29;;;;;;;10.57;3.85;;;10.80;99.90;;;;;;5133614;27;20848;-66
2022/11/07 04:30:55;;;;;;;10.00;4.22;;;10.80;99.90;;;;;;5115990;27;20043;-66
2022/11/07 04:33:20;;;;;;;9.23;3.85;;;10.80;99.90;;;;;;5118484;27;20057;-66
2022/11/07 04:35:46;;;;;;;12.05;3.83;;;10.80;99.90;;;;;;5096302;27;20480;-66
2022/11/07 04:38:12;;;;;;;10.45;3.47;;;10.80;99.90;;;;;;5130813;27;20417;-66
2022/11/07 04:40:37;;;;;;;9.23;3.88;;;10.70;99.90;;;;;;5117200;27;20069;-67
2022/11/07 04:43:07;;;;;;;10.32;4.20;;;10.70;99.90;;;;;;5114676;27;20140;-67
2022/11/07 04:45:37;;;;;;;12.85;3.25;;;10.70;99.90;;;;;;5111810;27;20043;-66
2022/11/07 04:48:04;;;;;;;9.38;3.53;;;10.70;99.90;;;;;;5109240;27;20035;-65
2022/11/07 04:50:30;;;;;;;14.23;4.00;;;10.70;99.90;;;;;;5112633;27;20401;-66
2022/11/07 04:52:55;;;;;;;10.10;3.80;;;10.60;99.90;;;;;;5117339;27;20043;-66
2022/11/07 04:55:24;;;;;;;13.70;4.38;;;10.60;99.90;;;;;;5100980;27;20034;-66
2022/11/07 04:57:49;;;;;;;9.93;3.47;;;10.60;99.90;;;;;;5121085;27;20122;-65
2022/11/07 05:00:16;;;;;;;8.63;3.50;;;10.60;99.90;;;;;;5119935;27;20114;-67
2022/11/07 05:02:42;;;;;;;11.63;3.97;;;10.60;99.90;;;;;;5114889;27;20122;-66
2022/11/07 05:05:08;;;;;;;10.95;3.70;;;10.60;99.90;;;;;;5098564;27;20474;-66
2022/11/07 05:07:34;;;;;;;10.40;3.72;;;10.50;99.90;;;;;;5113286;27;20088;-67
2022/11/07 05:09:59;;;;;;;12.98;3.92;;;10.60;99.90;;;;;;5115345;27;20043;-67
2022/11/07 05:12:25;;;;;;;10.65;4.47;;;10.50;99.90;;;;;;5118629;27;20051;-66
2022/11/07 05:14:51;;;;;;;14.88;4.18;;;10.50;99.90;;;;;;5100441;27;20540;-66
2022/11/07 05:17:16;;;;;;;14.35;4.53;;;10.60;99.90;;;;;;5117574;27;20043;-66
2022/11/07 05:19:42;;;;;;;6.53;3.83;;;10.60;99.90;;;;;;5114319;27;20031;-66
2022/11/07 05:24:55;;;;;;;10.13;3.42;;;10.60;99.90;;;;;;5109280;28;20482;-65
2022/11/07 05:27:21;;;;;;;9.77;3.58;;;10.60;99.90;;;;;;5111919;28;20066;-67
2022/11/07 05:29:47;;;;;;;8.98;3.30;;;10.60;99.90;;;;;;5109662;28;20035;-66
2022/11/07 05:32:13;;;;;;;10.02;3.30;;;10.60;99.90;;;;;;5107915;28;20095;-67
2022/11/07 05:34:39;;;;;;;10.93;3.45;;;10.60;99.90;;;;;;5110749;28;20035;-66
2022/11/07 05:37:09;;;;;;;11.18;3.20;;;10.70;99.90;;;;;;5108437;28;20035;-66
2022/11/07 05:39:35;;;;;;;7.75;3.10;;;10.70;99.90;;;;;;5091727;28;20044;-66
2022/11/07 05:42:01;;;;;;;13.43;3.33;;;10.70;99.90;;;;;;5111363;28;20043;-65
2022/11/07 05:44:27;;;;;;;13.65;4.97;;;10.70;99.90;;;;;;5108790;28;20416;-66
2022/11/07 05:46:54;;;;;;;7.20;2.80;;;10.80;99.90;;;;;;5110084;28;20043;-66
2022/11/07 05:49:19;;;;;;;10.85;3.72;;;10.80;99.90;;;;;;5109548;28;20316;-66
2022/11/07 05:51:45;;;;;;;9.23;3.20;;;10.80;99.90;;;;;;5111102;28;20123;-66
2022/11/07 05:54:11;;;;;;;10.02;3.35;;;10.80;99.90;;;;;;5108011;28;20718;-66
2022/11/07 05:56:37;;;;;;;10.30;3.60;;;10.90;99.90;;;;;;5110477;28;20377;-66
2022/11/07 05:59:03;;;;;;;7.53;3.53;;;10.90;99.90;;;;;;5110234;28;20046;-66
2022/11/07 06:01:29;;;;;;;10.10;3.90;;;10.90;99.90;;;;;;5109361;28;20047;-66
2022/11/07 06:03:55;;;;;;;8.32;3.95;;;10.80;99.90;;;;;;5110085;28;20043;-67
2022/11/07 06:06:21;;;;;;;12.38;3.92;;;10.90;99.90;;;;;;5110994;28;20089;-66
2022/11/07 06:08:46;;;;;;;11.10;4.00;;;10.80;99.90;;;;;;5109707;28;20339;-65
2022/11/07 06:11:12;;;;;;;14.32;4.45;;;10.80;99.90;;;;;;5091402;28;20050;-66
2022/11/07 06:13:38;;;;;;;11.52;4.88;;;10.70;99.90;;;;;;5108002;28;20035;-67
2022/11/07 06:16:04;;;;;;;13.13;4.85;;;10.70;99.90;;;;;;5111009;28;20122;-66
2022/11/07 06:18:29;;;;;;;10.77;4.50;;;10.70;99.90;;;;;;5109259;28;20150;-66
2022/11/07 06:20:55;;;;;;;14.32;4.75;;;10.70;99.90;;;;;;5113431;27;20451;-66
2022/11/07 06:23:21;;;;;;;14.30;5.40;;;10.70;99.90;;;;;;5112695;27;20049;-66
2022/11/07 06:25:47;;;;;;;16.10;5.25;;;10.70;99.90;;;;;;5116325;27;20046;-66
2022/11/07 06:28:13;;;;;;;16.27;4.90;;;10.70;99.90;;;;;;5111572;27;20043;-66
2022/11/07 06:30:40;;;;;;;15.73;4.90;;;10.70;99.90;;;;;;5114740;27;20404;-67
2022/11/07 06:33:16;;;;;;;13.73;5.97;;;10.70;99.90;;;;;;5099843;27;20122;-66
2022/11/07 06:35:43;;;;;;;13.55;4.85;;;10.70;99.90;;;;;;5106784;27;20031;-68
2022/11/07 06:38:10;;;;;;;13.45;4.70;;;10.70;99.90;;;;;;5112708;27;20040;-67
2022/11/07 06:40:36;;;;;;;14.77;5.80;;;10.70;99.90;;;;;;5129983;27;20039;-67
2022/11/07 06:43:14;;;;;;;15.40;4.95;;;10.70;99.90;;;;;;5110715;27;20055;-67
2022/11/07 06:45:40;;;;;;;13.77;4.90;;;10.70;99.90;;;;;;5111791;27;20494;-67
2022/11/07 06:48:06;;;;;;;12.23;4.75;;;10.80;99.90;;;;;;5130012;27;20539;-68
2022/11/07 06:50:33;;;;;;;14.95;5.18;;;10.80;99.90;;;;;;5112688;27;20614;-67
2022/11/07 06:53:08;;;;;;;15.30;4.80;;;10.80;99.90;;;;;;5115608;27;20035;-67
2022/11/07 06:55:34;;;;;;;12.95;5.03;;;10.90;99.90;;;;;;5112185;27;20039;-67
2022/11/07 06:58:00;;;;;;;11.40;4.00;;;10.90;99.90;;;;;;5115940;27;20066;-66
2022/11/07 07:00:27;;;;;;;18.88;5.82;;;10.90;99.90;;;;;;5114866;27;20063;-67
2022/11/07 07:02:53;;;;;;;10.02;4.07;;;10.90;99.90;;;;;;5114123;27;20027;-67
2022/11/07 07:05:19;;;;;;;14.77;5.15;;;10.90;99.90;;;;;;5094926;27;20106;-67
2022/11/07 07:07:44;;;;;;;13.65;4.85;;;11.00;99.90;;;;;;5113812;27;20078;-67
2022/11/07 07:10:10;;;;;;;10.93;4.97;;;11.00;99.90;;;;;;5113403;27;20039;-68
2022/11/07 07:12:36;;;;;;;11.32;4.15;;;11.00;99.90;;;;;;5108714;27;20079;-67
2022/11/07 07:15:01;;;;;;;16.17;5.05;;;11.00;99.90;;;;;;5107975;27;20087;-67
2022/11/07 07:17:27;;;;;;;13.18;4.18;;;11.00;99.90;;;;;;5107752;27;20054;-68
2022/11/07 07:19:53;;;;;;;17.55;4.75;;;11.00;99.90;;;;;;5094457;27;20043;-67
2022/11/07 07:22:18;;;;;;;17.00;5.80;;;11.00;99.90;;;;;;5113220;27;20098;-67
2022/11/07 07:24:44;;;;;;;15.57;5.13;;;11.10;99.90;;;;;;5093157;27;20095;-66
2022/11/07 07:27:10;;;;;;;13.95;4.70;;;11.10;99.90;;;;;;5094740;27;20524;-67
2022/11/07 07:29:36;;;;;;;12.05;4.78;;;11.10;99.90;;;;;;5094614;27;20051;-67
2022/11/07 07:32:01;;;;;;;12.45;4.75;;;11.20;99.90;;;;;;5106503;28;20419;-68
2022/11/07 07:34:27;;;;;;;14.32;4.43;;;11.20;99.90;;;;;;5112202;27;20056;-67
2022/11/07 07:36:53;;;;;;;12.95;4.28;;;11.20;99.90;;;;;;5110773;27;20039;-68
2022/11/07 07:39:18;;;;;;;15.55;4.35;;;11.30;99.90;;;;;;5109798;28;20073;-67
2022/11/07 07:41:44;;;;;;;15.55;4.20;;;11.30;99.90;;;;;;5110833;27;20072;-68
2022/11/07 07:44:10;;;;;;;11.30;4.32;;;11.30;99.90;;;;;;5096968;27;20121;-68
2022/11/07 07:46:35;;;;;;;14.32;4.18;;;11.30;99.90;;;;;;5108293;27;20035;-67
2022/11/07 07:49:01;;;;;;;12.65;4.38;;;11.40;99.90;;;;;;5094273;28;20100;-67
2022/11/07 07:51:27;;;;;;;16.95;4.07;;;11.40;99.90;;;;;;5115241;28;20043;-67
2022/11/07 07:53:52;;;;;;;11.55;3.75;;;11.40;99.90;;;;;;5112594;28;20043;-67
2022/11/07 07:56:18;;;;;;;11.90;4.38;;;11.50;99.90;;;;;;5112512;28;20465;-67
2022/11/07 07:58:45;;;;;;;16.75;4.80;;;11.50;99.90;;;;;;5114773;28;20112;-68
2022/11/07 08:01:10;;;;;;;13.85;4.03;;;11.50;99.90;;;;;;5112179;28;20027;-68
2022/11/07 08:03:37;;;;;;;17.98;4.72;;;11.50;99.90;;;;;;5109648;28;20505;-68
2022/11/07 08:06:04;;;;;;;13.07;3.83;;;11.60;99.90;;;;;;5095847;28;20044;-67
2022/11/07 08:08:30;;;;;;;18.27;4.90;;;11.60;99.90;;;;;;5112267;28;20091;-68
2022/11/07 08:11:04;;;;;;;16.13;3.65;;;11.60;99.90;;;;;;5112983;28;20500;-67
2022/11/07 08:13:29;;;;;;;12.15;3.88;;;11.70;99.90;;;;;;5112816;28;20485;-67
2022/11/07 08:15:56;;;;;;;14.63;4.50;;;11.70;99.90;;;;;;5111947;28;20119;-67
2022/11/07 08:18:22;;;;;;;16.20;4.07;;;11.80;99.90;;;;;;5095516;28;20039;-67
2022/11/07 08:20:53;;;;;;;10.90;3.45;;;11.80;99.90;;;;;;5095047;28;20043;-67
2022/11/07 08:23:19;;;;;;;11.35;3.33;;;11.80;99.90;;;;;;5107481;28;20069;-67
2022/11/07 08:25:52;;;;;;;9.68;3.50;;;11.80;99.90;;;;;;5116121;27;20099;-67
2022/11/07 08:28:21;;;;;;;13.70;4.38;;;11.80;99.90;;;;;;5110268;28;20155;-67
2022/11/07 08:30:58;;;;;;;12.75;3.60;;;11.90;99.90;;;;;;5112069;28;20837;-67
2022/11/07 08:33:25;;;;;;;14.45;3.30;;;11.80;99.90;;;;;;5108441;28;20039;-68
2022/11/07 08:35:53;;;;;;;14.98;3.83;;;11.90;99.90;;;;;;5111910;28;20055;-66
2022/11/07 08:38:19;;;;;;;15.48;3.15;;;11.80;99.90;;;;;;5112309;27;20043;-67
2022/11/07 08:40:44;;;;;;;10.10;3.00;;;11.90;99.90;;;;;;5112532;28;20110;-68
2022/11/07 08:43:10;;;;;;;12.48;3.00;;;11.90;99.90;;;;;;5111703;28;20070;-67
2022/11/07 08:45:36;;;;;;;14.27;3.70;;;11.90;99.90;;;;;;5112360;28;20122;-67
2022/11/07 08:48:01;;;;;;;13.50;3.95;;;11.90;99.90;;;;;;5112081;28;20047;-68
2022/11/07 08:50:27;;;;;;;10.13;2.88;;;11.90;99.90;;;;;;5095093;28;20085;-67
2022/11/07 08:52:53;;;;;;;11.75;3.15;;;11.90;99.90;;;;;;5111927;28;20524;-67
2022/11/07 08:55:18;;;;;;;10.18;2.85;;;11.90;99.90;;;;;;5111338;28;20069;-67
2022/11/07 08:57:44;;;;;;;12.90;2.67;;;12.00;99.90;;;;;;5112194;28;20039;-67
2022/11/07 09:00:10;;;;;;;11.20;2.92;;;12.00;99.90;;;;;;5113680;27;20094;-67
2022/11/07 09:02:36;;;;;;;12.70;2.72;;;12.00;99.90;;;;;;5116104;27;20050;-67
2022/11/07 09:05:02;;;;;;;14.50;3.17;;;12.00;99.90;;;;;;5115218;27;20031;-67
2022/11/07 09:07:28;;;;;;;10.05;3.50;;;12.00;99.90;;;;;;5098661;27;20070;-67
2022/11/07 09:09:53;;;;;;;13.65;3.30;;;12.00;99.90;;;;;;5115671;27;20474;-67
2022/11/07 09:12:19;;;;;;;10.82;2.95;;;12.10;99.90;;;;;;5115573;27;20175;-67
2022/11/07 09:14:44;;;;;;;13.18;3.40;;;12.10;99.90;;;;;;5115779;27;20356;-67
2022/11/07 09:17:10;;;;;;;9.57;2.70;;;12.20;99.90;;;;;;5115163;27;20382;-67
2022/11/07 09:19:35;;;;;;;10.10;2.58;;;12.20;99.90;;;;;;5115498;27;20117;-67
2022/11/07 09:22:01;;;;;;;10.63;2.72;;;12.20;99.90;;;;;;5098219;27;20405;-67
2022/11/07 09:24:27;;;;;;;7.22;2.55;;;12.30;99.90;;;;;;5115224;27;20050;-67
2022/11/07 09:26:52;;;;;;;11.23;3.05;;;12.30;99.90;;;;;;5115216;27;20042;-67
2022/11/07 09:29:18;;;;;;;14.18;3.08;;;12.40;99.90;;;;;;5098063;27;20126;-68
2022/11/07 09:31:44;;;;;;;13.25;2.80;;;12.40;99.90;;;;;;5115341;27;20038;-67
2022/11/07 09:34:09;;;;;;;11.50;2.97;;;12.50;99.90;;;;;;5115496;27;20485;-68
2022/11/07 09:36:35;;;;;;;13.10;2.70;;;12.50;99.90;;;;;;5114811;27;20134;-67
2022/11/07 09:39:00;;;;;;;9.82;2.70;;;12.40;99.90;;;;;;5133247;27;20035;-67
2022/11/07 09:41:48;;;;;;;11.32;3.58;;;12.50;99.90;;;;;;5115003;27;20061;-67
2022/11/07 09:44:44;;;;;;;13.13;3.72;;;12.40;99.90;;;;;;5115014;27;20054;-67
2022/11/07 09:47:10;;;;;;;11.43;3.35;;;12.30;99.90;;;;;;5114854;27;20047;-67
2022/11/07 09:49:39;;;;;;;13.00;3.20;;;12.20;99.90;;;;;;5114850;27;20031;-67
2022/11/07 09:52:21;;;;;;;10.50;3.53;;;12.10;99.90;;;;;;5113864;27;20031;-68
2022/11/07 09:54:54;;;;;;;13.05;3.70;;;12.10;99.90;;;;;;5098217;27;20035;-67
2022/11/07 09:57:21;;;;;;;10.10;3.45;;;12.10;99.90;;;;;;5114617;27;20484;-67
2022/11/07 09:59:54;;;;;;;10.88;3.42;;;12.10;99.90;;;;;;5114574;27;20049;-67
2022/11/07 10:02:33;;;;;;;12.45;3.45;;;12.10;99.90;;;;;;5114641;27;20031;-67
2022/11/07 10:05:02;;;;;;;11.07;2.90;;;12.20;99.90;;;;;;5114571;27;20118;-67
2022/11/07 10:07:49;;;;;;;13.40;3.45;;;12.30;99.90;;;;;;5114271;27;20047;-68
2022/11/07 10:10:41;;;;;;;10.38;3.85;;;12.40;99.90;;;;;;5114223;27;20041;-67
2022/11/07 10:13:16;;;;;;;13.23;3.60;;;12.40;99.90;;;;;;5009586;28;20049;-67
2022/11/07 10:16:05;;;;;;;11.65;2.70;;;12.50;99.90;;;;;;5012885;28;20033;-67
2022/11/07 10:18:42;;;;;;;11.70;3.20;;;12.60;99.90;;;;;;5012594;28;20053;-67
2022/11/07 10:21:28;;;;;;;8.65;2.55;;;12.60;99.90;;;;;;5012501;28;20476;-67
2022/11/07 10:23:57;;;;;;;12.90;2.95;;;12.70;99.90;;;;;;5012919;28;20069;-67
2022/11/07 10:26:26;;;;;;;11.48;2.58;;;12.80;99.90;;;;;;5013216;28;20037;-67
2022/11/07 10:29:18;;;;;;;15.40;3.20;;;12.90;99.90;;;;;;5010816;28;20042;-67
2022/11/07 10:31:47;;;;;;;9.45;3.05;;;12.90;99.90;;;;;;5012136;28;20049;-66
2022/11/07 10:34:28;;;;;;;10.88;3.10;;;12.90;99.90;;;;;;4996178;28;20049;-67
2022/11/07 10:36:54;;;;;;;11.07;2.92;;;13.00;99.90;;;;;;5012394;28;20041;-67
2022/11/07 10:39:19;;;;;;;10.13;3.05;;;13.00;99.90;;;;;;5012709;28;20045;-67
2022/11/07 10:42:03;;;;;;;10.68;2.90;;;13.10;99.90;;;;;;5011801;28;20046;-67
2022/11/07 10:44:28;;;;;;;11.02;3.20;;;13.10;99.90;;;;;;5012660;28;20500;-67
2022/11/07 10:46:54;;;;;;;10.25;2.65;;;13.10;99.90;;;;;;5012384;28;20045;-67
2022/11/07 10:49:26;;;;;;;12.70;3.58;;;13.20;99.90;;;;;;5025470;27;20164;-66
2022/11/07 10:51:52;;;;;;;13.75;3.10;;;13.20;99.90;;;;;;5113130;27;20453;-67
2022/11/07 10:54:20;;;;;;;11.65;2.70;;;13.30;99.90;;;;;;5114088;27;20035;-67
2022/11/07 10:56:50;;;;;;;9.30;2.38;;;13.40;99.90;;;;;;5113497;27;20041;-67
2022/11/07 10:59:29;;;;;;;9.32;2.40;;;13.40;99.90;;;;;;5113380;27;20049;-66
2022/11/07 11:01:58;;;;;;;12.55;3.33;;;13.40;99.90;;;;;;5113242;27;20101;-67
2022/11/07 11:04:27;;;;;;;11.00;2.67;;;13.40;99.90;;;;;;5114040;27;20490;-67
2022/11/07 11:07:02;;;;;;;14.18;3.35;;;13.50;99.90;;;;;;5113468;28;20390;-67
2022/11/07 11:09:33;;;;;;;9.50;2.50;;;13.40;99.90;;;;;;5113239;27;20477;-67
2022/11/07 11:12:10;;;;;;;11.73;2.50;;;13.40;99.90;;;;;;5113227;27;20439;-67
2022/11/07 11:14:36;;;;;;;11.57;2.95;;;13.50;99.90;;;;;;5113163;27;20435;-67
2022/11/07 11:17:03;;;;;;;13.10;2.50;;;13.40;99.90;;;;;;5113088;27;20042;-67
2022/11/07 11:19:39;;;;;;;7.20;2.10;;;13.50;99.90;;;;;;5113400;27;20058;-67
2022/11/07 11:22:14;;;;;;;9.88;2.65;;;13.50;99.90;;;;;;5094353;27;20124;-67
2022/11/07 11:24:40;;;;;;;10.30;2.53;;;13.50;99.90;;;;;;5095921;27;20509;-67
2022/11/07 11:27:18;;;;;;;12.40;2.72;;;13.60;99.90;;;;;;5110035;27;20108;-67
2022/11/07 11:29:54;;;;;;;9.13;2.40;;;13.60;99.90;;;;;;5110421;27;20039;-67
2022/11/07 11:32:53;;;;;;;10.15;2.60;;;13.60;99.90;;;;;;5112818;27;20055;-68
2022/11/07 11:35:31;;;;;;;12.82;2.47;;;13.70;99.90;;;;;;5113009;28;20039;-67
2022/11/07 11:38:07;;;;;;;12.32;2.90;;;13.60;99.90;;;;;;5095838;27;20122;-66
2022/11/07 11:40:36;;;;;;;11.35;2.55;;;13.70;99.90;;;;;;5113178;27;20508;-67
2022/11/07 11:43:09;;;;;;;13.25;2.60;;;13.70;99.90;;;;;;5096079;27;20118;-66
2022/11/07 11:45:53;;;;;;;8.95;3.38;;;13.80;99.90;;;;;;5123875;27;20053;-67
2022/11/07 11:48:39;;;;;;;9.07;3.00;;;13.80;99.90;;;;;;5112615;28;20043;-67
2022/11/07 11:51:20;;;;;;;9.75;2.25;;;13.90;99.90;;;;;;5112818;27;20035;-67
2022/11/07 11:53:46;;;;;;;10.88;2.50;;;14.00;99.90;;;;;;5112974;28;20370;-67
2022/11/07 11:56:18;;;;;;;10.98;2.60;;;14.00;99.90;;;;;;5113134;28;20076;-67
2022/11/07 11:58:44;;;;;;;9.38;2.45;;;14.00;99.90;;;;;;5107022;28;20123;-67
2022/11/07 12:01:40;;;;;;;11.60;2.80;;;13.90;99.90;;;;;;5107697;28;20487;-67
2022/11/07 12:04:30;;;;;;;7.53;2.10;;;13.90;99.90;;;;;;5112377;28;20043;-67
2022/11/07 12:07:20;;;;;;;10.15;2.97;;;13.80;99.90;;;;;;5112334;28;20125;-67
2022/11/07 12:10:10;;;;;;;7.25;2.42;;;13.90;99.90;;;;;;5111514;28;20493;-67
2022/11/07 12:13:09;;;;;;;9.43;2.55;;;13.90;99.90;;;;;;5112601;28;20102;-67
2022/11/07 12:15:50;;;;;;;7.43;2.47;;;13.90;99.90;;;;;;5111633;28;20032;-67
2022/11/07 12:18:19;;;;;;;10.05;2.40;;;13.90;99.90;;;;;;5109509;28;20067;-67
2022/11/07 12:20:48;;;;;;;9.57;2.55;;;13.90;99.90;;;;;;5104506;28;20706;-68
2022/11/07 12:23:23;;;;;;;6.65;2.28;;;13.80;99.90;;;;;;5107180;28;20055;-67
2022/11/07 12:26:13;;;;;;;9.23;2.55;;;13.80;99.90;;;;;;5109538;28;20071;-67
2022/11/07 12:28:56;;;;;;;5.90;2.50;;;13.80;99.90;;;;;;5108994;28;20123;-67
2022/11/07 12:31:45;;;;;;;8.35;2.58;;;13.70;99.90;;;;;;5106515;28;20090;-67
2022/11/07 12:34:59;;;;;;;12.40;3.28;;;13.70;99.90;;;;;;5094740;27;20047;-68
2022/11/07 12:37:47;;;;;;;10.77;2.63;;;13.70;99.90;;;;;;5022718;28;20069;-68
2022/11/07 12:40:39;;;;;;;11.18;2.72;;;13.70;99.90;;;;;;5013715;28;20702;-68
2022/11/07 12:43:41;;;;;;;6.82;2.80;;;13.80;99.90;;;;;;5030033;28;20041;-68
2022/11/07 12:46:24;;;;;;;10.53;2.20;;;13.70;99.90;;;;;;4954903;28;20093;-67
2022/11/07 12:49:26;;;;;;;13.40;2.70;;;13.70;99.90;;;;;;4940301;28;20510;-68
2022/11/07 12:52:14;;;;;;;9.48;2.70;;;13.80;99.90;;;;;;4956308;28;20141;-68
2022/11/07 12:54:48;;;;;;;12.63;3.42;;;13.80;99.90;;;;;;4956065;28;20183;-67
2022/11/07 12:57:25;;;;;;;11.98;2.80;;;13.80;99.90;;;;;;4971745;28;20383;-67
2022/11/07 13:00:04;;;;;;;8.50;2.92;;;13.70;99.90;;;;;;4972134;28;20043;-67
2022/11/07 13:02:42;;;;;;;14.68;3.30;;;13.70;99.90;;;;;;4955934;28;20362;-68
2022/11/07 13:05:39;;;;;;;12.30;2.85;;;13.70;99.90;;;;;;4971060;28;20391;-68
2022/11/07 13:08:16;;;;;;;11.82;3.47;;;13.70;99.90;;;;;;4916943;29;20055;-67